Time;durP1;ratioP1;P1;durP2;ratioP2;P2;SDS_P1;SDS_P2;PMS_P1;PMS_P2;Temp;Humidity;BMP_temperature;BMP_pressure;BME280_temperature;BME280_humidity;BME280_pressure;Samples;Min_cycle;Max_cycle;Signal;HPM_P1;HPM_P2
2022/06/29 00:02:25;;;;;;;16.15;12.60;;;;;;;18.86;100.00;95039.47;6307513;22;20168;-82
2022/06/29 00:05:03;;;;;;;16.13;11.77;;;;;;;18.91;100.00;95039.47;6307224;22;20251;-82
2022/06/29 00:07:37;;;;;;;17.58;12.13;;;;;;;18.87;100.00;95050.81;6304224;22;20211;-82
2022/06/29 00:10:19;;;;;;;15.00;11.93;;;;;;;18.86;100.00;95046.59;6307021;22;20160;-82
2022/06/29 00:12:55;;;;;;;15.93;12.30;;;;;;;18.77;100.00;95038.38;6307158;22;20153;-82
2022/06/29 00:15:37;;;;;;;15.52;11.98;;;;;;;18.74;100.00;95046.00;6307267;22;20225;-83
2022/06/29 00:18:14;;;;;;;16.13;11.33;;;;;;;18.67;100.00;95044.41;6307513;22;20157;-81
2022/06/29 00:20:52;;;;;;;17.50;12.10;;;;;;;18.51;100.00;95032.25;6307312;22;20153;-81
2022/06/29 00:23:30;;;;;;;19.10;12.47;;;;;;;18.46;100.00;95045.38;6306894;22;20178;-83
2022/06/29 00:26:13;;;;;;;14.70;12.47;;;;;;;18.35;100.00;95054.28;6306469;22;20630;-83
2022/06/29 00:28:50;;;;;;;17.70;12.13;;;;;;;18.16;100.00;95042.56;6306910;22;20843;-82
2022/06/29 00:31:29;;;;;;;15.73;11.65;;;;;;;18.22;100.00;95044.19;6307297;22;20152;-83
2022/06/29 00:34:01;;;;;;;17.20;11.65;;;;;;;18.27;100.00;95043.44;6306452;22;20176;-83
2022/06/29 00:36:31;;;;;;;15.23;11.33;;;;;;;18.24;100.00;95042.09;6306945;22;20156;-83
2022/06/29 00:39:07;;;;;;;16.87;10.60;;;;;;;18.27;100.00;95030.28;6306968;22;20172;-82
2022/06/29 00:41:55;;;;;;;14.93;10.80;;;;;;;18.23;100.00;95032.63;6306797;22;20158;-82
2022/06/29 00:44:33;;;;;;;15.65;9.93;;;;;;;18.25;100.00;95030.53;6305434;22;20157;-82
2022/06/29 00:47:14;;;;;;;12.13;9.73;;;;;;;18.25;100.00;95038.41;6305838;22;20503;-82
2022/06/29 00:49:49;;;;;;;14.15;10.75;;;;;;;18.32;100.00;95038.19;6306894;22;20541;-82
2022/06/29 00:52:32;;;;;;;13.90;9.75;;;;;;;18.24;100.00;95033.44;6306755;22;20174;-82
2022/06/29 00:55:11;;;;;;;16.45;10.00;;;;;;;18.14;100.00;95034.16;6306854;22;20500;-83
2022/06/29 00:57:58;;;;;;;13.07;9.77;;;;;;;18.03;100.00;95033.31;6306334;22;20199;-82
2022/06/29 01:00:35;;;;;;;13.70;9.63;;;;;;;17.96;100.00;95016.16;6307080;22;20157;-82
2022/06/29 01:03:07;;;;;;;11.30;9.93;;;;;;;18.09;100.00;95036.75;6304066;22;20168;-82
2022/06/29 01:05:46;;;;;;;12.65;10.02;;;;;;;18.18;100.00;95016.03;6306717;22;20593;-82
2022/06/29 01:08:23;;;;;;;15.82;10.23;;;;;;;18.24;100.00;95015.78;6305873;22;20168;-82
2022/06/29 01:10:58;;;;;;;12.77;9.75;;;;;;;18.36;100.00;95020.81;6306743;22;20153;-81
2022/06/29 01:13:40;;;;;;;14.10;10.77;;;;;;;18.37;100.00;95020.59;6306275;22;20211;-81
2022/06/29 01:16:24;;;;;;;12.90;10.18;;;;;;;18.43;100.00;95013.50;6307269;22;20184;-81
2022/06/29 01:19:04;;;;;;;13.27;11.05;;;;;;;18.46;100.00;95007.72;6306907;22;20611;-81
2022/06/29 01:21:46;;;;;;;12.77;10.43;;;;;;;18.47;100.00;94999.53;6306897;22;20523;-82
2022/06/29 01:24:26;;;;;;;21.80;12.18;;;;;;;18.49;100.00;95009.88;6306901;22;20226;-81
2022/06/29 01:26:59;;;;;;;16.60;11.10;;;;;;;18.50;100.00;95003.53;6306558;22;20225;-81
2022/06/29 01:29:39;;;;;;;17.40;11.95;;;;;;;18.48;100.00;95005.59;6306557;22;20156;-81
2022/06/29 01:32:19;;;;;;;15.85;11.27;;;;;;;18.42;100.00;95002.16;6306294;22;20274;-82
2022/06/29 01:34:55;;;;;;;16.27;11.50;;;;;;;18.45;100.00;95012.19;6306548;22;20191;-82
2022/06/29 01:37:26;;;;;;;18.10;11.38;;;;;;;18.47;100.00;95009.31;6305849;22;20156;-81
2022/06/29 01:40:02;;;;;;;13.50;10.40;;;;;;;18.46;100.00;95013.78;6305434;22;20195;-81
2022/06/29 01:42:42;;;;;;;15.10;10.75;;;;;;;18.50;100.00;95016.69;6305898;22;20156;-81
2022/06/29 01:45:16;;;;;;;18.35;10.82;;;;;;;18.45;100.00;95011.38;6306526;22;20152;-82
2022/06/29 01:47:56;;;;;;;16.38;10.50;;;;;;;18.50;100.00;95014.84;6306402;22;20217;-81
2022/06/29 01:50:33;;;;;;;14.60;10.80;;;;;;;18.52;100.00;95012.78;6306820;22;20465;-81
2022/06/29 01:53:18;;;;;;;14.88;10.68;;;;;;;18.50;100.00;95014.06;6305086;22;20380;-81
2022/06/29 01:55:58;;;;;;;15.82;10.93;;;;;;;18.50;100.00;95003.53;6280863;22;20236;-82
2022/06/29 01:58:36;;;;;;;23.52;11.40;;;;;;;18.46;100.00;95005.88;6306578;22;20234;-82
2022/06/29 02:01:13;;;;;;;16.42;11.13;;;;;;;18.35;100.00;94982.41;6305224;22;20206;-82
2022/06/29 02:03:48;;;;;;;20.80;11.38;;;;;;;18.36;100.00;94995.31;6305247;22;20164;-81
2022/06/29 02:06:20;;;;;;;18.92;11.88;;;;;;;18.30;100.00;94990.25;6305999;22;20164;-81
2022/06/29 02:08:57;;;;;;;16.75;11.20;;;;;;;18.24;100.00;94997.34;6305801;22;20194;-81
2022/06/29 02:11:37;;;;;;;16.10;10.95;;;;;;;18.26;100.00;94994.47;6305488;22;20153;-80
2022/06/29 02:14:13;;;;;;;17.45;10.32;;;;;;;18.17;100.00;94990.75;6305546;22;20760;-80
2022/06/29 02:16:52;;;;;;;16.10;10.57;;;;;;;18.12;100.00;94984.41;6305216;22;20153;-80
2022/06/29 02:19:24;;;;;;;16.23;10.43;;;;;;;18.13;100.00;94988.63;6305316;22;20523;-80
2022/06/29 02:21:59;;;;;;;15.37;11.07;;;;;;;18.11;100.00;94982.03;6305906;22;20160;-81
2022/06/29 02:24:38;;;;;;;13.18;10.60;;;;;;;18.03;100.00;94985.16;6305389;22;20626;-83
2022/06/29 02:27:25;;;;;;;19.30;10.83;;;;;;;17.99;100.00;94977.00;6306032;22;20614;-82
2022/06/29 02:30:01;;;;;;;15.80;11.67;;;;;;;18.02;100.00;94979.09;6305510;22;20153;-82
2022/06/29 02:35:41;;;;;;;16.50;11.53;;;;;;;18.06;100.00;94987.28;6211284;23;20197;-80
2022/06/29 02:38:18;;;;;;;16.97;11.13;;;;;;;18.06;100.00;94972.31;6210956;23;20672;-81
2022/06/29 02:40:53;;;;;;;14.85;10.73;;;;;;;18.07;100.00;94976.50;6263181;22;20180;-81
2022/06/29 02:43:35;;;;;;;19.63;12.52;;;;;;;18.07;100.00;94973.88;6306004;22;20235;-83
2022/06/29 02:46:06;;;;;;;22.80;12.70;;;;;;;18.06;100.00;94967.03;6305871;22;20161;-81
2022/06/29 02:48:43;;;;;;;19.75;12.70;;;;;;;18.11;100.00;94969.69;6305873;22;20171;-81
2022/06/29 02:51:23;;;;;;;15.83;11.90;;;;;;;18.03;100.00;94966.75;6306208;22;20182;-81
2022/06/29 02:54:00;;;;;;;17.00;11.75;;;;;;;18.04;100.00;94965.69;6305815;22;20259;-82
2022/06/29 02:56:46;;;;;;;25.00;11.38;;;;;;;18.02;100.00;94970.41;6305635;22;20199;-82
2022/06/29 02:59:28;;;;;;;15.57;11.45;;;;;;;17.99;100.00;94966.47;6305977;22;20305;-81
2022/06/29 03:02:08;;;;;;;17.80;10.88;;;;;;;17.87;100.00;94973.75;6305821;22;20205;-81
2022/06/29 03:04:42;;;;;;;11.23;9.53;;;;;;;17.80;100.00;94970.59;6305245;22;20153;-81
2022/06/29 03:07:15;;;;;;;13.73;9.30;;;;;;;17.81;100.00;94972.16;6303675;22;20286;-82
2022/06/29 03:09:53;;;;;;;17.83;9.45;;;;;;;17.78;100.00;94966.59;6304992;22;20175;-82
2022/06/29 03:12:21;;;;;;;13.30;9.00;;;;;;;17.63;100.00;94967.34;6305622;22;20486;-82
2022/06/29 03:15:10;;;;;;;14.17;8.87;;;;;;;17.60;100.00;94973.09;6305573;22;20188;-82
2022/06/29 03:17:47;;;;;;;12.60;9.33;;;;;;;17.65;100.00;94972.31;6305694;22;20164;-81
2022/06/29 03:20:22;;;;;;;14.53;9.07;;;;;;;17.67;100.00;94978.09;6304172;22;20247;-82
2022/06/29 03:22:59;;;;;;;11.33;8.63;;;;;;;17.69;100.00;94983.94;6304823;22;20503;-82
2022/06/29 03:25:34;;;;;;;14.97;9.17;;;;;;;17.66;100.00;94974.72;6307567;22;20164;-83
2022/06/29 03:28:13;;;;;;;9.93;8.67;;;;;;;17.68;100.00;94974.44;6307771;22;20160;-82
2022/06/29 03:30:49;;;;;;;13.70;8.57;;;;;;;17.68;100.00;94974.44;6308051;22;20153;-82
2022/06/29 03:33:29;;;;;;;10.60;8.17;;;;;;;17.69;100.00;94973.41;6307963;22;20235;-83
2022/06/29 03:36:07;;;;;;;13.43;9.60;;;;;;;17.71;100.00;94974.72;6307625;22;20484;-82
2022/06/29 03:38:42;;;;;;;13.80;9.60;;;;;;;17.57;100.00;94963.84;6307632;22;20159;-82
2022/06/29 03:41:20;;;;;;;11.57;8.83;;;;;;;17.67;100.00;94981.53;6307235;22;20152;-82
2022/06/29 03:43:52;;;;;;;13.07;9.33;;;;;;;17.68;100.00;94977.06;6307728;22;20199;-83
2022/06/29 03:46:28;;;;;;;14.93;9.33;;;;;;;17.61;100.00;94977.28;6307510;22;20156;-81
2022/06/29 03:49:10;;;;;;;13.80;9.53;;;;;;;17.47;100.00;94976.09;6307001;22;20190;-79
2022/06/29 03:51:47;;;;;;;15.17;10.13;;;;;;;17.21;100.00;94963.81;6306694;22;20152;-79
2022/06/29 03:54:22;;;;;;;17.67;10.67;;;;;;;16.99;100.00;94954.22;6307174;22;20241;-80
2022/06/29 03:56:54;;;;;;;15.67;10.80;;;;;;;16.83;100.00;94947.22;6306792;22;20599;-80
2022/06/29 03:59:27;;;;;;;17.10;12.00;;;;;;;16.73;100.00;94957.66;6306810;22;20182;-79
2022/06/29 04:02:11;;;;;;;21.40;11.93;;;;;;;16.77;100.00;94945.59;6306708;22;20506;-81
2022/06/29 04:04:45;;;;;;;16.10;11.33;;;;;;;16.95;100.00;94949.69;6307209;22;20603;-82
2022/06/29 04:07:23;;;;;;;15.90;10.80;;;;;;;17.00;100.00;94932.16;6306769;22;20160;-81
2022/06/29 04:10:02;;;;;;;20.07;11.73;;;;;;;17.19;100.00;94947.53;6306997;22;20167;-81
2022/06/29 04:12:40;;;;;;;13.17;10.40;;;;;;;17.28;100.00;94949.44;6306585;22;20209;-81
2022/06/29 04:15:19;;;;;;;15.90;11.43;;;;;;;17.30;100.00;94952.59;6307312;22;20172;-81
2022/06/29 04:17:59;;;;;;;15.60;11.33;;;;;;;17.41;100.00;94937.69;6307059;22;20235;-81
2022/06/29 04:23:28;;;;;;;15.87;11.80;;;;;;;17.57;100.00;94927.06;6306522;22;20254;-81
2022/06/29 04:26:01;;;;;;;16.63;11.87;;;;;;;17.61;100.00;94942.31;6307436;22;20549;-83
2022/06/29 04:28:36;;;;;;;23.57;12.20;;;;;;;17.69;100.00;94947.88;6307620;22;20153;-81
2022/06/29 04:31:12;;;;;;;17.37;12.07;;;;;;;17.70;100.00;94949.47;6306999;22;20495;-79
2022/06/29 04:33:49;;;;;;;18.00;11.77;;;;;;;17.77;100.00;94947.44;6306451;22;20234;-78
2022/06/29 04:36:24;;;;;;;20.97;11.87;;;;;;;17.85;100.00;94951.41;6302492;22;20168;-78
2022/06/29 04:38:59;;;;;;;15.53;11.87;;;;;;;17.93;100.00;94945.66;6304371;22;20566;-79
2022/06/29 04:41:37;;;;;;;17.70;11.77;;;;;;;17.97;100.00;94939.63;6305794;22;20213;-79
2022/06/29 04:44:12;;;;;;;19.63;11.65;;;;;;;17.97;100.00;94937.00;6305831;22;20182;-78
2022/06/29 04:46:49;;;;;;;15.27;11.33;;;;;;;18.02;100.00;94939.66;6306202;22;20152;-78
2022/06/29 04:49:26;;;;;;;17.35;11.88;;;;;;;18.09;100.00;94940.19;6306433;22;20175;-79
2022/06/29 04:52:03;;;;;;;18.57;12.13;;;;;;;17.98;100.00;94948.28;6306175;22;20557;-79
2022/06/29 04:54:41;;;;;;;17.77;13.02;;;;;;;17.97;100.00;94944.09;6303796;22;20192;-80
2022/06/29 04:57:16;;;;;;;18.52;12.43;;;;;;;17.95;100.00;94943.56;6305474;22;20619;-78
2022/06/29 04:59:54;;;;;;;19.27;12.43;;;;;;;18.00;100.00;94957.53;6304398;22;20247;-80
2022/06/29 05:02:29;;;;;;;18.50;13.37;;;;;;;18.03;100.00;94961.50;6306127;22;20156;-80
2022/06/29 05:05:06;;;;;;;15.18;12.55;;;;;;;18.10;100.00;94960.19;6305956;22;20205;-80
2022/06/29 05:07:37;;;;;;;18.90;13.20;;;;;;;18.14;100.00;94963.13;6305198;22;20222;-82
2022/06/29 05:10:13;;;;;;;19.77;13.70;;;;;;;18.03;100.00;94959.66;6305927;22;20210;-81
2022/06/29 05:12:43;;;;;;;17.50;13.73;;;;;;;17.80;100.00;94957.44;6305979;22;20159;-81
2022/06/29 05:15:16;;;;;;;19.50;13.97;;;;;;;17.73;100.00;94956.06;6306186;22;20655;-80
2022/06/29 05:17:55;;;;;;;18.70;14.15;;;;;;;17.69;100.00;94963.66;6305742;22;20157;-81
2022/06/29 05:20:25;;;;;;;22.63;15.20;;;;;;;17.82;100.00;94968.47;6306207;22;20159;-81
2022/06/29 05:22:54;;;;;;;24.13;16.07;;;;;;;17.94;100.00;94957.75;6302346;22;20164;-81
2022/06/29 05:25:27;;;;;;;21.17;15.23;;;;;;;18.00;100.00;94952.28;6305722;22;20248;-81
2022/06/29 05:27:55;;;;;;;23.97;16.07;;;;;;;18.13;100.00;94957.06;6305505;22;20163;-80
2022/06/29 05:30:27;;;;;;;22.90;16.17;;;;;;;18.13;100.00;94962.31;6305408;22;20218;-80
2022/06/29 05:32:58;;;;;;;21.03;16.37;;;;;;;18.05;100.00;94962.03;6304492;22;20248;-84
2022/06/29 05:35:34;;;;;;;23.70;15.70;;;;;;;18.04;100.00;94955.16;6305187;22;20183;-79
2022/06/29 05:38:13;;;;;;;23.93;16.43;;;;;;;18.09;100.00;94963.09;6304337;22;20159;-78
2022/06/29 05:40:50;;;;;;;28.63;17.25;;;;;;;18.17;100.00;94956.53;6304798;22;20160;-76
2022/06/29 05:43:33;;;;;;;22.55;16.17;;;;;;;18.21;100.00;94953.13;6305632;22;20152;-83
2022/06/29 05:46:09;;;;;;;27.53;16.13;;;;;;;18.29;100.00;94959.75;6306411;22;20160;-88
2022/06/29 05:48:44;;;;;;;26.00;16.38;;;;;;;18.37;100.00;94961.88;6305368;22;20157;-82
2022/06/29 05:51:20;;;;;;;23.53;16.67;;;;;;;18.42;100.00;94972.41;6305445;22;20548;-79
2022/06/29 05:53:54;;;;;;;23.60;16.20;;;;;;;18.51;100.00;94968.28;6304836;22;20159;-80
2022/06/29 05:56:28;;;;;;;26.48;16.70;;;;;;;18.62;100.00;94973.31;6304190;22;20657;-79
2022/06/29 05:59:01;;;;;;;19.80;16.45;;;;;;;18.65;100.00;94979.88;6304928;22;20170;-80
2022/06/29 06:01:37;;;;;;;25.35;15.73;;;;;;;18.69;100.00;94981.75;6305261;22;20152;-80
2022/06/29 06:04:12;;;;;;;24.15;16.33;;;;;;;18.70;100.00;94975.44;6303314;22;20214;-80
2022/06/29 06:06:54;;;;;;;21.00;16.27;;;;;;;18.82;100.00;94980.44;6305478;22;20156;-81
2022/06/29 06:09:27;;;;;;;20.40;15.25;;;;;;;18.90;100.00;94981.81;6304876;22;20170;-82
2022/06/29 06:12:07;;;;;;;27.05;16.05;;;;;;;18.96;100.00;94976.25;6305725;22;20160;-81
2022/06/29 06:14:42;;;;;;;21.77;15.52;;;;;;;19.04;100.00;94978.41;6305510;22;20161;-81
2022/06/29 06:17:19;;;;;;;24.38;15.77;;;;;;;19.15;100.00;94982.63;6305763;22;20155;-80
2022/06/29 06:19:55;;;;;;;25.77;14.57;;;;;;;19.21;100.00;94980.78;6305121;22;20509;-81
2022/06/29 06:22:37;;;;;;;19.08;15.43;;;;;;;19.19;100.00;94977.63;6304313;22;20156;-80
2022/06/29 06:25:12;;;;;;;22.88;15.70;;;;;;;19.28;100.00;94968.09;6305545;22;20149;-80
2022/06/29 06:27:46;;;;;;;22.52;14.75;;;;;;;19.33;100.00;94968.13;6306116;22;20649;-80
2022/06/29 06:30:24;;;;;;;25.38;14.80;;;;;;;19.43;100.00;94962.06;6304859;22;20184;-81
2022/06/29 06:33:03;;;;;;;24.52;15.57;;;;;;;19.46;100.00;94964.97;6304358;22;20213;-80
2022/06/29 06:35:41;;;;;;;22.70;15.18;;;;;;;19.49;100.00;94961.00;6304968;22;20180;-79
2022/06/29 06:38:16;;;;;;;23.20;14.65;;;;;;;19.45;100.00;94963.38;6304537;22;20163;-80
2022/06/29 06:43:32;;;;;;;18.33;12.77;;;;;;;19.61;100.00;94957.06;6305195;22;20155;-80
2022/06/29 06:46:05;;;;;;;20.02;12.50;;;;;;;19.68;100.00;94956.78;6305052;22;20156;-80
2022/06/29 06:48:37;;;;;;;20.33;13.57;;;;;;;19.70;100.00;94960.72;6304963;22;20634;-79
2022/06/29 06:51:10;;;;;;;18.80;12.95;;;;;;;19.74;100.00;94959.13;6304491;22;20157;-79
2022/06/29 06:53:44;;;;;;;20.25;13.43;;;;;;;19.77;100.00;94953.31;6305119;22;20229;-79
2022/06/29 06:56:18;;;;;;;18.67;12.85;;;;;;;19.89;100.00;94939.84;6304969;22;20182;-80
2022/06/29 06:58:53;;;;;;;16.95;13.10;;;;;;;20.02;100.00;94938.47;6305040;22;20179;-80
2022/06/29 07:01:31;;;;;;;19.48;12.80;;;;;;;20.15;100.00;94948.44;6305184;22;20172;-80
2022/06/29 07:04:05;;;;;;;15.57;11.80;;;;;;;20.21;100.00;94942.88;6305011;22;20156;-81
2022/06/29 07:06:36;;;;;;;15.60;12.13;;;;;;;20.32;100.00;94947.09;6304208;22;20213;-81
2022/06/29 07:09:17;;;;;;;17.92;12.18;;;;;;;20.47;100.00;94940.16;6305180;22;20153;-82
2022/06/29 07:11:52;;;;;;;21.30;12.07;;;;;;;20.47;100.00;94932.22;6304430;22;20558;-81
2022/06/29 07:14:29;;;;;;;17.85;11.23;;;;;;;20.67;100.00;94948.75;6302912;22;20159;-80
2022/06/29 07:17:08;;;;;;;16.52;11.60;;;;;;;20.78;100.00;94952.91;6304831;22;20176;-81
2022/06/29 07:19:39;;;;;;;15.07;11.27;;;;;;;20.82;100.00;94945.25;6304131;22;20160;-80
2022/06/29 07:22:12;;;;;;;17.00;10.95;;;;;;;20.91;100.00;94948.88;6305215;22;20153;-80
2022/06/29 07:24:46;;;;;;;12.70;10.27;;;;;;;21.05;100.00;94941.91;6305058;22;20163;-80
2022/06/29 07:27:19;;;;;;;15.25;8.45;;;;;;;21.18;100.00;94948.47;6303672;22;20168;-79
2022/06/29 07:29:52;;;;;;;12.75;9.10;;;;;;;21.21;100.00;94943.38;6304846;22;20160;-80
2022/06/29 07:32:23;;;;;;;12.15;8.85;;;;;;;21.20;100.00;94955.06;6304684;22;20156;-79
2022/06/29 07:34:53;;;;;;;13.05;8.07;;;;;;;21.16;100.00;94946.06;6304909;22;20535;-79
2022/06/29 07:37:28;;;;;;;12.27;8.32;;;;;;;21.22;100.00;94930.97;6305315;22;20164;-79
2022/06/29 07:40:06;;;;;;;9.93;7.88;;;;;;;21.35;100.00;94947.00;6304794;22;20167;-80
2022/06/29 07:42:40;;;;;;;11.40;7.15;;;;;;;21.40;100.00;94944.31;6305366;22;20196;-80
2022/06/29 07:45:13;;;;;;;11.80;6.97;;;;;;;21.52;100.00;94943.94;6304830;22;20155;-80
2022/06/29 07:47:48;;;;;;;10.35;7.18;;;;;;;21.63;100.00;94937.47;6305237;22;20170;-80
2022/06/29 07:50:19;;;;;;;11.93;7.97;;;;;;;21.75;100.00;94937.88;6305366;22;20160;-81
2022/06/29 07:52:55;;;;;;;12.15;9.18;;;;;;;21.88;100.00;94939.88;6305150;22;20152;-80
2022/06/29 07:55:40;;;;;;;10.90;8.95;;;;;;;21.85;100.00;94940.41;6304892;22;20177;-78
2022/06/29 07:58:10;;;;;;;10.65;8.35;;;;;;;21.95;100.00;94939.56;6294449;22;20192;-80
2022/06/29 08:00:43;;;;;;;12.13;8.77;;;;;;;22.08;100.00;94938.09;6300808;22;20639;-80
2022/06/29 08:03:12;;;;;;;15.20;8.48;;;;;;;22.12;100.00;94925.84;6297260;22;20195;-80
2022/06/29 08:05:45;;;;;;;15.45;8.27;;;;;;;22.19;100.00;94927.09;6300383;22;20624;-82
2022/06/29 08:08:14;;;;;;;14.10;8.77;;;;;;;22.27;100.00;94929.13;6300418;22;20222;-81
2022/06/29 08:10:49;;;;;;;13.48;8.65;;;;;;;22.48;100.00;94919.81;6299787;22;20168;-80
2022/06/29 08:13:18;;;;;;;18.67;9.43;;;;;;;22.66;100.00;94936.03;6303654;22;20233;-81
2022/06/29 08:15:48;;;;;;;11.25;7.30;;;;;;;22.81;100.00;94922.59;6303861;22;20218;-82
2022/06/29 08:18:19;;;;;;;12.65;8.30;;;;;;;23.00;100.00;94928.69;6302452;22;20874;-81
2022/06/29 08:20:50;;;;;;;13.70;8.73;;;;;;;23.03;100.00;94917.50;6301495;22;20247;-81
2022/06/29 08:23:20;;;;;;;18.27;8.27;;;;;;;23.14;100.00;94926.88;6300810;22;20179;-81
2022/06/29 08:25:54;;;;;;;14.27;8.43;;;;;;;23.25;100.00;94938.88;6302638;22;20929;-81
2022/06/29 08:28:26;;;;;;;10.48;8.00;;;;;;;23.30;99.38;94938.00;6299699;22;20516;-81
2022/06/29 08:31:00;;;;;;;12.35;7.82;;;;;;;23.28;100.00;94926.91;6298474;22;20163;-80
2022/06/29 08:33:37;;;;;;;11.82;7.90;;;;;;;23.47;100.00;94935.63;6299004;22;20599;-80
2022/06/29 08:36:10;;;;;;;13.10;8.05;;;;;;;23.58;100.00;94935.16;6299247;22;20184;-80
2022/06/29 08:38:39;;;;;;;11.32;8.00;;;;;;;23.65;97.94;94937.44;6302919;22;20183;-78
2022/06/29 08:41:16;;;;;;;13.40;7.95;;;;;;;23.57;96.10;94933.59;6300533;22;20183;-78
2022/06/29 08:43:51;;;;;;;12.15;8.70;;;;;;;23.73;95.58;94937.56;6299218;22;20235;-83
2022/06/29 08:46:26;;;;;;;12.38;8.18;;;;;;;23.82;92.65;94934.22;6300563;22;20163;-81
2022/06/29 08:48:59;;;;;;;8.70;7.43;;;;;;;23.85;92.67;94925.66;6301764;22;20156;-80
2022/06/29 08:51:42;;;;;;;9.35;6.68;;;;;;;23.93;95.56;94941.72;6298551;22;20167;-80
2022/06/29 08:54:25;;;;;;;8.88;6.05;;;;;;;24.05;97.60;94936.69;6304832;22;20159;-79
2022/06/29 08:57:21;;;;;;;11.55;7.07;;;;;;;24.19;96.16;94931.41;6306286;22;20655;-81
2022/06/29 09:00:14;;;;;;;14.70;6.75;;;;;;;24.36;96.94;94931.59;6306831;22;20541;-81
2022/06/29 09:03:08;;;;;;;8.40;6.60;;;;;;;24.57;87.76;94937.28;6307191;22;20175;-80
2022/06/29 09:06:06;;;;;;;8.85;6.32;;;;;;;24.63;88.11;94939.53;6306623;22;20149;-80
2022/06/29 09:08:55;;;;;;;10.95;6.22;;;;;;;24.79;92.27;94926.72;6307526;22;20175;-79
2022/06/29 09:14:47;;;;;;;10.25;5.55;;;;;;;24.95;85.83;94925.28;6306793;22;20662;-80
2022/06/29 09:17:32;;;;;;;10.07;5.82;;;;;;;25.03;86.41;94921.13;6306464;22;20238;-81
2022/06/29 09:20:23;;;;;;;10.23;6.30;;;;;;;25.12;81.45;94929.97;6303783;22;20170;-81
2022/06/29 09:26:33;;;;;;;12.98;6.38;;;;;;;25.19;79.54;94925.81;6305202;22;20165;-78
2022/06/29 09:29:39;;;;;;;10.50;5.45;;;;;;;25.29;78.93;94933.53;6307509;22;20166;-80
2022/06/29 09:32:44;;;;;;;;;;;;;;;;;;;;;
2022/06/29 09:35:34;;;;;;;6.40;5.38;;;;;;;25.56;82.31;94922.00;6305427;22;20559;-81
2022/06/29 09:38:40;;;;;;;12.63;5.80;;;;;;;25.71;81.57;94928.81;6306395;22;20165;-81
2022/06/29 09:41:35;;;;;;;9.32;5.82;;;;;;;25.81;79.65;94928.53;6305745;22;20156;-80
2022/06/29 09:44:25;;;;;;;7.45;6.00;;;;;;;25.94;80.35;94925.00;6306074;22;20152;-80
2022/06/29 09:50:29;;;;;;;8.38;5.50;;;;;;;26.23;78.41;94911.97;6305495;22;20604;-80
2022/06/29 09:53:16;;;;;;;10.18;6.13;;;;;;;26.39;77.49;94913.09;6307025;22;20168;-80
2022/06/29 09:56:04;;;;;;;8.32;5.63;;;;;;;26.51;75.12;94915.16;6306383;22;20152;-80
2022/06/29 09:59:01;;;;;;;6.40;4.75;;;;;;;26.65;74.04;94918.47;6306144;22;20202;-80
2022/06/29 10:04:48;;;;;;;8.60;4.95;;;;;;;26.84;71.46;94902.97;6266666;22;20564;-82
2022/06/29 10:07:47;;;;;;;6.95;4.80;;;;;;;27.01;70.98;94910.97;6304755;22;20612;-82
2022/06/29 10:10:35;;;;;;;9.23;5.15;;;;;;;27.04;70.62;94902.31;6306334;22;20591;-80
2022/06/29 10:16:42;;;;;;;6.65;4.60;;;;;;;27.35;71.60;94896.81;6306394;22;20183;-80
2022/06/29 10:19:51;;;;;;;11.93;6.07;;;;;;;27.51;71.19;94892.56;6306156;22;20153;-81
2022/06/29 10:22:43;;;;;;;6.28;4.78;;;;;;;27.64;69.46;94896.16;6305608;22;20606;-80
2022/06/29 10:25:31;;;;;;;16.67;8.00;;;;;;;27.82;69.13;94900.31;6305902;22;20164;-80
2022/06/29 10:28:40;;;;;;;14.65;6.47;;;;;;;28.04;65.75;94904.66;6303290;22;20148;-80
2022/06/29 10:35:20;;;;;;;8.18;4.10;;;;;;;28.44;63.30;94897.06;6303980;22;20168;-80
2022/06/29 10:38:19;;;;;;;8.30;4.22;;;;;;;28.65;62.20;94896.03;6305896;22;20196;-80
2022/06/29 10:44:22;;;;;;;5.78;3.92;;;;;;;28.77;59.78;94894.50;6304553;22;20148;-81
2022/06/29 10:47:33;;;;;;;4.53;3.72;;;;;;;28.74;57.48;94885.25;6305432;22;20168;-81
2022/06/29 10:50:47;;;;;;;4.50;3.60;;;;;;;29.02;57.49;94898.88;6305381;22;20156;-81
2022/06/29 10:53:37;;;;;;;7.07;3.38;;;;;;;29.35;57.58;94888.22;6262571;22;20168;-81
2022/06/29 10:56:23;;;;;;;6.82;3.42;;;;;;;29.25;53.30;94900.91;6303278;22;20198;-81
2022/06/29 10:59:39;;;;;;;5.68;3.65;;;;;;;29.02;53.52;94888.94;6274672;22;20153;-80
2022/06/29 11:05:28;;;;;;;5.00;3.63;;;;;;;29.53;54.46;94881.56;6272693;22;20165;-80
2022/06/29 11:17:04;;;;;;;5.25;3.90;;;;;;;29.76;54.20;94882.72;6270151;22;20242;-79
2022/06/29 11:19:38;;;;;;;6.28;4.20;;;;;;;29.91;52.36;94874.06;6271577;22;20503;-78
2022/06/29 11:22:19;;;;;;;5.57;3.92;;;;;;;30.10;50.10;94878.88;6271477;22;20161;-81
2022/06/29 11:25:00;;;;;;;4.50;3.40;;;;;;;30.16;48.06;94872.19;6272568;22;20221;-80
2022/06/29 11:27:45;;;;;;;6.35;3.95;;;;;;;30.19;47.07;94866.91;6273398;22;20509;-81
2022/06/29 11:30:15;;;;;;;6.40;3.55;;;;;;;30.29;47.11;94861.09;6272559;22;20161;-80
2022/06/29 11:32:49;;;;;;;12.90;3.70;;;;;;;30.53;46.99;94849.56;6272502;22;20192;-80
2022/06/29 11:35:25;;;;;;;4.18;3.78;;;;;;;30.56;48.21;94865.00;6272702;22;20179;-81
2022/06/29 11:38:01;;;;;;;5.13;3.65;;;;;;;30.60;47.18;94857.03;6271651;22;20211;-79
2022/06/29 11:40:40;;;;;;;5.72;3.67;;;;;;;30.78;46.81;94858.34;6271760;22;20251;-79
2022/06/29 11:43:19;;;;;;;6.47;3.88;;;;;;;30.97;48.32;94845.09;6270277;22;20726;-79
2022/06/29 11:45:53;;;;;;;7.75;3.75;;;;;;;31.24;48.30;94847.00;6272776;22;20153;-88
2022/06/29 11:48:31;;;;;;;7.35;3.85;;;;;;;31.05;46.83;94846.88;6273444;22;20260;-80
2022/06/29 11:51:05;;;;;;;4.82;3.60;;;;;;;31.19;46.51;94847.25;6273098;22;20232;-76
2022/06/29 11:53:48;;;;;;;7.75;3.67;;;;;;;31.04;43.69;94847.97;6260941;22;20172;-81
2022/06/29 11:56:26;;;;;;;3.85;3.50;;;;;;;31.28;44.36;94855.94;6268263;22;20216;-81
2022/06/29 11:59:02;;;;;;;5.80;3.78;;;;;;;31.46;43.63;94843.72;6300692;22;20260;-81
2022/06/29 12:01:36;;;;;;;6.82;3.60;;;;;;;31.63;44.16;94833.81;6300403;22;20481;-83
2022/06/29 12:04:10;;;;;;;9.63;3.92;;;;;;;31.91;44.17;94840.66;6299388;22;20248;-81
2022/06/29 12:06:39;;;;;;;6.95;4.30;;;;;;;31.96;44.80;94840.38;6300612;22;20697;-82
2022/06/29 12:09:09;;;;;;;4.57;4.00;;;;;;;32.26;44.08;94837.25;6299909;22;20179;-82
2022/06/29 12:11:39;;;;;;;4.03;3.63;;;;;;;32.24;42.88;94834.91;6301182;22;20800;-83
2022/06/29 12:14:17;;;;;;;6.95;4.10;;;;;;;32.36;43.46;94836.69;6304712;22;20156;-80
2022/06/29 12:16:48;;;;;;;6.22;3.65;;;;;;;32.23;40.30;94835.25;6295944;22;20230;-79
2022/06/29 12:19:22;;;;;;;4.15;3.67;;;;;;;32.12;41.63;94826.97;6299620;22;20236;-83
2022/06/29 12:21:53;;;;;;;5.90;3.50;;;;;;;32.31;41.68;94828.91;6299539;22;20157;-80
2022/06/29 12:24:29;;;;;;;6.18;3.92;;;;;;;32.54;42.52;94830.63;6298571;22;20186;-80
2022/06/29 12:27:01;;;;;;;3.72;3.38;;;;;;;32.76;41.88;94829.13;6297586;22;20209;-84
2022/06/29 12:29:34;;;;;;;6.75;3.80;;;;;;;32.91;41.28;94822.91;6299232;22;20211;-81
2022/06/29 12:32:06;;;;;;;6.60;4.03;;;;;;;33.07;41.66;94829.00;6298713;22;20484;-78
2022/06/29 12:34:38;;;;;;;4.85;3.70;;;;;;;33.11;40.88;94829.88;6299721;22;20222;-84
2022/06/29 12:37:10;;;;;;;7.43;3.60;;;;;;;32.92;40.87;94829.06;6297933;22;20215;-81
2022/06/29 12:39:45;;;;;;;8.55;4.10;;;;;;;32.85;43.31;94824.31;6298075;22;20646;-81
2022/06/29 12:42:21;;;;;;;13.07;3.85;;;;;;;32.55;41.44;94831.41;6297329;22;20225;-82
2022/06/29 12:44:55;;;;;;;6.72;3.70;;;;;;;32.18;40.38;94824.78;6299315;22;20156;-80
2022/06/29 12:47:24;;;;;;;9.68;4.10;;;;;;;31.91;41.75;94829.91;6301262;22;20889;-81
2022/06/29 12:49:57;;;;;;;7.18;3.60;;;;;;;32.00;42.01;94824.34;6297627;22;20168;-82
2022/06/29 12:52:31;;;;;;;3.75;3.38;;;;;;;32.32;42.71;94814.31;6299102;22;20168;-81
2022/06/29 12:55:00;;;;;;;5.25;3.60;;;;;;;32.61;41.55;94815.75;6300928;22;20233;-82